createdAt,value
2023-08-17T00:00:11.681Z,76.53
2023-08-17T00:02:41.616Z,76.32
2023-08-17T00:05:12.206Z,76.31
2023-08-17T00:07:41.026Z,76.63
2023-08-17T00:10:10.566Z,76.77
2023-08-17T00:12:39.554Z,77.01
2023-08-17T00:15:09.389Z,77.60
2023-08-17T00:17:38.409Z,77.35
2023-08-17T00:20:11.165Z,77.43
2023-08-17T00:22:41.713Z,77.58
2023-08-17T00:25:12.089Z,77.64
2023-08-17T00:27:40.921Z,78.68
2023-08-17T00:30:10.634Z,79.28
2023-08-17T00:32:40.137Z,79.34
2023-08-17T00:35:10.230Z,80.12
2023-08-17T00:37:40.603Z,80.20
2023-08-17T00:40:10.593Z,80.24
2023-08-17T00:42:39.302Z,81.03
2023-08-17T00:45:09.619Z,81.17
2023-08-17T00:47:38.846Z,81.02
2023-08-17T00:50:09.375Z,81.19
2023-08-17T00:52:38.144Z,81.21
2023-08-17T00:55:09.428Z,80.88
2023-08-17T00:57:39.724Z,80.81
2023-08-17T01:00:10.300Z,80.98
2023-08-17T01:02:39.979Z,81.21
2023-08-17T01:05:09.782Z,80.52
2023-08-17T01:07:39.180Z,80.27
2023-08-17T01:10:12.619Z,79.85
2023-08-17T01:12:55.432Z,79.80
2023-08-17T01:15:30.484Z,79.27
2023-08-17T01:18:04.557Z,79.45
2023-08-17T01:20:35.576Z,79.28
2023-08-17T01:23:07.438Z,79.55
2023-08-17T01:25:37.954Z,79.88
2023-08-17T01:28:07.487Z,79.86
2023-08-17T01:30:41.377Z,79.70
2023-08-17T01:33:10.748Z,78.95
2023-08-17T01:35:42.314Z,79.28
2023-08-17T01:38:18.370Z,80.20
2023-08-17T01:40:47.853Z,80.90
2023-08-17T01:43:17.466Z,81.06
2023-08-17T01:45:47.049Z,80.95
2023-08-17T01:48:16.230Z,80.96
2023-08-17T01:50:46.264Z,80.91
2023-08-17T01:53:16.643Z,81.63
2023-08-17T01:55:45.345Z,80.91
2023-08-17T01:58:14.275Z,81.11
2023-08-17T02:00:43.226Z,81.25
2023-08-17T02:03:12.133Z,81.12
2023-08-17T02:05:41.578Z,81.23
2023-08-17T02:08:10.327Z,80.84
2023-08-17T02:10:40.820Z,80.83
2023-08-17T02:13:17.915Z,81.52
2023-08-17T02:15:47.788Z,81.35
2023-08-17T02:18:16.847Z,81.27
2023-08-17T02:20:45.901Z,81.06
2023-08-17T02:23:14.829Z,80.92
2023-08-17T02:25:45.249Z,81.31
2023-08-17T02:28:15.738Z,80.98
2023-08-17T02:30:46.358Z,80.55
2023-08-17T02:33:15.307Z,79.73
2023-08-17T02:35:44.101Z,79.73
2023-08-17T02:38:12.795Z,79.41
2023-08-17T02:40:41.659Z,79.54
2023-08-17T02:43:12.101Z,79.63
2023-08-17T02:45:41.592Z,79.23
2023-08-17T02:48:10.670Z,79.96
2023-08-17T02:50:39.488Z,80.78
2023-08-17T02:53:08.211Z,80.89
2023-08-17T02:55:37.218Z,80.06
2023-08-17T02:58:06.892Z,80.47
2023-08-17T03:00:37.437Z,80.52
2023-08-17T03:03:06.750Z,80.10
2023-08-17T03:05:36.435Z,80.54
2023-08-17T03:08:06.528Z,80.87
2023-08-17T03:10:35.017Z,81.37
2023-08-17T03:13:03.888Z,82.10
2023-08-17T03:15:32.918Z,83.10
2023-08-17T03:18:03.428Z,83.94
2023-08-17T03:20:32.472Z,84.47
2023-08-17T03:23:01.506Z,84.05
2023-08-17T03:25:30.624Z,84.02
2023-08-17T03:27:59.576Z,87.16
2023-08-17T03:30:29.032Z,86.80
2023-08-17T03:32:57.912Z,86.79
2023-08-17T03:35:29.409Z,87.38
2023-08-17T03:37:58.494Z,86.77
2023-08-17T03:40:27.468Z,87.82
2023-08-17T03:42:56.242Z,88.00
2023-08-17T03:45:25.008Z,88.08
2023-08-17T03:47:54.512Z,87.71
2023-08-17T03:50:24.256Z,88.16
2023-08-17T03:52:54.761Z,88.21
2023-08-17T03:55:24.650Z,88.31
2023-08-17T03:57:53.899Z,89.60
2023-08-17T04:00:22.876Z,89.08
2023-08-17T04:02:57.940Z,89.95
2023-08-17T04:05:26.831Z,90.36
2023-08-17T04:07:57.360Z,90.17
2023-08-17T04:10:26.517Z,90.25
2023-08-17T04:12:55.318Z,90.63
2023-08-17T04:15:24.129Z,90.20
2023-08-17T04:17:53.072Z,90.99
2023-08-17T04:20:23.727Z,91.16
2023-08-17T04:22:53.804Z,91.05
2023-08-17T04:25:24.548Z,90.74
2023-08-17T04:27:54.430Z,90.76
2023-08-17T04:30:25.430Z,91.59
2023-08-17T04:33:01.501Z,91.49
2023-08-17T04:35:30.504Z,91.42
2023-08-17T04:37:59.713Z,91.52
2023-08-17T04:40:30.381Z,91.85
2023-08-17T04:43:01.449Z,92.16
2023-08-17T04:45:30.822Z,92.13
2023-08-17T04:48:00.082Z,91.73
2023-08-17T04:50:29.694Z,91.53
2023-08-17T04:52:58.664Z,91.94
2023-08-17T04:55:27.425Z,91.72
2023-08-17T04:57:58.997Z,91.78
2023-08-17T05:00:30.190Z,91.48
2023-08-17T05:03:00.577Z,91.86
2023-08-17T05:05:36.912Z,92.11
2023-08-17T05:08:09.710Z,92.44
2023-08-17T05:10:39.374Z,93.10
2023-08-17T05:13:09.727Z,92.71
2023-08-17T05:15:38.586Z,93.83
2023-08-17T05:18:10.633Z,94.07
2023-08-17T05:20:40.604Z,94.66
2023-08-17T05:23:10.593Z,94.16
2023-08-17T05:25:40.037Z,94.65
2023-08-17T05:28:10.911Z,95.27
2023-08-17T05:30:39.904Z,94.72
2023-08-17T05:33:09.118Z,95.01
2023-08-17T05:35:38.156Z,95.50
2023-08-17T05:38:07.340Z,95.57
2023-08-17T05:40:36.325Z,95.92
2023-08-17T05:43:05.666Z,95.67
2023-08-17T05:45:38.260Z,95.08
2023-08-17T05:48:08.461Z,96.60
2023-08-17T05:50:38.059Z,96.69
2023-08-17T05:53:07.200Z,96.62
2023-08-17T05:55:36.392Z,97.30
2023-08-17T05:58:05.832Z,96.84
2023-08-17T06:00:36.725Z,96.15
2023-08-17T06:03:06.446Z,96.32
2023-08-17T06:05:35.711Z,96.27
2023-08-17T06:08:04.838Z,95.42
2023-08-17T06:10:34.186Z,95.69
2023-08-17T06:13:03.151Z,96.32
2023-08-17T06:15:32.566Z,95.94
2023-08-17T06:18:02.740Z,95.87
2023-08-17T06:20:31.790Z,95.98
2023-08-17T06:23:01.344Z,96.69
2023-08-17T06:25:30.839Z,95.66
2023-08-17T06:27:59.853Z,95.80
2023-08-17T06:30:28.809Z,95.88
2023-08-17T06:32:58.036Z,94.16
2023-08-17T06:35:28.909Z,94.94
2023-08-17T06:37:59.511Z,95.49
2023-08-17T06:40:28.734Z,95.92
2023-08-17T06:42:57.610Z,94.95
2023-08-17T06:45:26.838Z,95.42
2023-08-17T06:47:56.058Z,92.73
2023-08-17T06:50:25.145Z,94.00
2023-08-17T06:52:55.567Z,94.68
2023-08-17T06:55:24.222Z,94.90
2023-08-17T06:57:53.188Z,93.77
2023-08-17T07:00:22.760Z,91.88
2023-08-17T07:02:55.331Z,91.76
2023-08-17T07:05:36.276Z,92.71
2023-08-17T07:08:10.220Z,91.34
2023-08-17T07:10:39.480Z,92.05
2023-08-17T07:13:08.274Z,91.10
2023-08-17T07:15:37.162Z,90.87
2023-08-17T07:18:06.719Z,90.86
2023-08-17T07:20:35.522Z,90.59
2023-08-17T07:23:04.413Z,89.74
2023-08-17T07:25:35.372Z,89.22
2023-08-17T07:28:04.176Z,88.53
2023-08-17T07:30:33.057Z,88.00
2023-08-17T07:33:02.073Z,88.50
2023-08-17T07:35:31.002Z,87.90
2023-08-17T07:38:08.416Z,86.93
2023-08-17T07:40:40.274Z,85.35
2023-08-17T07:43:09.252Z,85.69
2023-08-17T07:45:38.067Z,85.22
2023-08-17T07:48:07.680Z,84.19
2023-08-17T07:50:36.703Z,84.57
2023-08-17T07:53:05.892Z,84.62
2023-08-17T07:58:10.245Z,82.37
2023-08-17T08:00:39.366Z,82.56
2023-08-17T08:03:08.612Z,81.40
2023-08-17T08:05:37.358Z,82.23
2023-08-17T08:08:07.222Z,82.25
2023-08-17T08:10:37.137Z,81.65
2023-08-17T08:13:07.430Z,81.76
2023-08-17T08:15:37.994Z,80.99
2023-08-17T08:18:07.489Z,81.12
2023-08-17T08:20:36.611Z,80.59
2023-08-17T08:23:06.102Z,78.80
2023-08-17T08:25:35.125Z,78.58
2023-08-17T08:28:03.944Z,79.15
2023-08-17T08:30:33.128Z,76.65
2023-08-17T08:33:04.113Z,77.18
2023-08-17T08:35:33.095Z,76.87
2023-08-17T08:38:02.559Z,76.89
2023-08-17T08:40:33.120Z,74.81
2023-08-17T08:43:02.037Z,74.14
2023-08-17T08:45:31.268Z,74.46
2023-08-17T08:48:00.673Z,74.38
2023-08-17T08:50:34.226Z,73.61
2023-08-17T08:53:05.818Z,74.82
2023-08-17T08:55:38.249Z,73.23
2023-08-17T08:58:09.300Z,73.59
2023-08-17T09:00:38.515Z,72.49
2023-08-17T09:03:11.990Z,73.26
2023-08-17T09:05:42.267Z,71.16
2023-08-17T09:08:17.620Z,71.13
2023-08-17T09:10:46.942Z,71.72
2023-08-17T09:13:15.604Z,70.98
2023-08-17T09:15:44.787Z,71.27
2023-08-17T09:18:14.630Z,71.02
2023-08-17T09:20:48.290Z,71.58
2023-08-17T09:23:21.923Z,70.75
2023-08-17T09:25:53.348Z,69.76
2023-08-17T09:28:22.406Z,68.16
2023-08-17T09:30:55.818Z,69.23
2023-08-17T09:33:25.690Z,67.93
2023-08-17T09:35:59.733Z,68.13
2023-08-17T09:38:29.962Z,69.28
2023-08-17T09:41:00.406Z,67.46
2023-08-17T09:43:32.288Z,65.39
2023-08-17T09:46:03.136Z,64.87
2023-08-17T09:48:34.109Z,65.49
2023-08-17T09:51:07.043Z,64.91
2023-08-17T09:53:38.453Z,64.77
2023-08-17T09:56:17.855Z,65.90
2023-08-17T09:58:46.742Z,66.69
2023-08-17T10:01:15.973Z,64.06
2023-08-17T10:03:46.960Z,63.97
2023-08-17T10:08:55.825Z,59.83
2023-08-17T10:11:25.874Z,60.75
2023-08-17T10:14:00.206Z,60.00
2023-08-17T10:16:32.383Z,61.82
2023-08-17T10:19:08.762Z,60.88
2023-08-17T10:21:42.521Z,59.89
2023-08-17T10:24:11.781Z,61.38
2023-08-17T10:26:41.882Z,61.55
2023-08-17T10:29:15.565Z,59.53
2023-08-17T10:31:47.920Z,59.22
2023-08-17T10:34:17.929Z,61.68
2023-08-17T10:36:48.403Z,62.16
2023-08-17T10:39:21.187Z,62.41
2023-08-17T10:41:51.603Z,61.10
2023-08-17T10:44:25.994Z,59.50
2023-08-17T10:46:55.351Z,58.12
2023-08-17T10:49:27.793Z,57.72
2023-08-17T10:52:05.801Z,55.62
2023-08-17T10:54:41.557Z,56.26
2023-08-17T10:57:32.126Z,57.50
2023-08-17T11:00:23.062Z,58.34
2023-08-17T11:02:56.209Z,56.42
2023-08-17T11:05:38.994Z,55.05
2023-08-17T11:08:11.572Z,55.81
2023-08-17T11:10:41.137Z,57.39
2023-08-17T11:13:10.876Z,56.59
2023-08-17T11:15:43.744Z,57.13
2023-08-17T11:18:13.726Z,55.66
2023-08-17T11:20:44.061Z,54.84
2023-08-17T11:23:14.170Z,54.61
2023-08-17T11:25:44.994Z,54.95
2023-08-17T11:28:15.639Z,57.62
2023-08-17T11:30:47.808Z,56.58
2023-08-17T11:33:17.131Z,56.43
2023-08-17T11:35:47.024Z,56.64
2023-08-17T11:38:18.353Z,56.41
2023-08-17T11:40:48.003Z,56.33
2023-08-17T11:45:54.471Z,56.06
2023-08-17T11:48:24.086Z,56.17
2023-08-17T11:50:54.022Z,54.08
2023-08-17T11:53:27.797Z,55.17
2023-08-17T11:55:57.881Z,56.70
2023-08-17T11:58:39.865Z,54.73
2023-08-17T12:01:11.818Z,54.92
2023-08-17T12:03:42.505Z,53.77
2023-08-17T12:06:14.382Z,53.06
2023-08-17T12:08:47.435Z,53.88
2023-08-17T12:11:18.300Z,53.12
2023-08-17T12:13:52.419Z,56.10
2023-08-17T12:16:22.287Z,53.88
2023-08-17T12:18:51.960Z,54.88
2023-08-17T12:21:23.124Z,54.45
2023-08-17T12:23:54.262Z,54.51
2023-08-17T12:26:24.310Z,50.33
2023-08-17T12:28:53.703Z,50.33
2023-08-17T12:31:26.243Z,49.27
2023-08-17T12:33:57.405Z,51.68
2023-08-17T12:36:29.126Z,49.86
2023-08-17T12:39:03.051Z,51.00
2023-08-17T12:41:33.789Z,49.49
2023-08-17T12:44:03.140Z,49.91
2023-08-17T12:46:34.193Z,49.29
2023-08-17T12:49:04.882Z,51.00
2023-08-17T12:51:34.853Z,51.75
2023-08-17T12:54:07.854Z,52.08
2023-08-17T12:56:36.385Z,53.93
2023-08-17T12:59:05.302Z,51.16
2023-08-17T13:01:34.345Z,52.30
2023-08-17T13:04:06.271Z,49.92
2023-08-17T13:06:47.648Z,50.31
2023-08-17T13:09:20.764Z,50.57
2023-08-17T13:11:53.700Z,48.44
2023-08-17T13:14:24.036Z,51.76
2023-08-17T13:16:56.098Z,51.78
2023-08-17T13:19:24.770Z,48.45
2023-08-17T13:21:53.666Z,51.21
2023-08-17T13:24:24.099Z,48.28
2023-08-17T13:26:56.192Z,48.13
2023-08-17T13:29:24.964Z,49.21
2023-08-17T13:31:53.944Z,50.87
2023-08-17T13:34:23.063Z,46.63
2023-08-17T13:36:54.033Z,48.66
2023-08-17T13:39:24.841Z,48.19
2023-08-17T13:41:53.846Z,48.00
2023-08-17T13:44:25.149Z,49.73
2023-08-17T13:46:57.495Z,48.82
2023-08-17T13:49:26.791Z,48.40
2023-08-17T13:51:55.381Z,48.78
2023-08-17T13:54:28.148Z,47.24
2023-08-17T13:56:57.185Z,48.33
2023-08-17T13:59:31.201Z,47.69
2023-08-17T14:02:00.084Z,47.09
2023-08-17T14:04:31.901Z,46.48
2023-08-17T14:07:00.867Z,47.58
2023-08-17T14:09:32.517Z,45.48
2023-08-17T14:12:03.930Z,46.06
2023-08-17T14:14:32.828Z,42.95
2023-08-17T14:17:01.665Z,43.88
2023-08-17T14:19:32.132Z,46.47
2023-08-17T14:22:02.894Z,47.66
2023-08-17T14:24:33.920Z,45.04
2023-08-17T14:27:03.831Z,43.50
2023-08-17T14:29:35.857Z,45.37
2023-08-17T14:32:05.421Z,44.93
2023-08-17T14:34:34.004Z,43.99
2023-08-17T14:37:06.090Z,42.14
2023-08-17T14:39:39.328Z,42.37
2023-08-17T14:42:08.715Z,41.96
2023-08-17T14:44:38.397Z,42.29
2023-08-17T14:47:12.702Z,44.41
2023-08-17T14:49:43.359Z,43.06
2023-08-17T14:52:13.924Z,43.22
2023-08-17T14:54:44.266Z,46.76
2023-08-17T14:57:13.032Z,45.22
2023-08-17T14:59:43.265Z,44.90
2023-08-17T15:02:12.701Z,43.32
2023-08-17T15:04:41.829Z,41.81
2023-08-17T15:07:12.526Z,42.05
2023-08-17T15:09:41.396Z,42.48
2023-08-17T15:12:14.052Z,44.89
2023-08-17T15:14:42.774Z,43.76
2023-08-17T15:17:13.859Z,41.41
2023-08-17T15:19:42.787Z,42.36
2023-08-17T15:22:15.784Z,43.51
2023-08-17T15:24:47.767Z,43.85
2023-08-17T15:27:18.222Z,43.10
2023-08-17T15:29:46.906Z,41.48
2023-08-17T15:32:15.847Z,43.70
2023-08-17T15:34:44.635Z,41.57
2023-08-17T15:37:16.082Z,41.74
2023-08-17T15:39:45.035Z,42.26
2023-08-17T15:42:13.985Z,43.34
2023-08-17T15:44:44.364Z,41.86
2023-08-17T15:47:13.515Z,42.09
2023-08-17T15:49:41.937Z,39.26
2023-08-17T15:52:12.438Z,41.43
2023-08-17T15:54:41.445Z,41.90
2023-08-17T15:57:11.826Z,39.89
2023-08-17T15:59:41.219Z,40.64
2023-08-17T16:02:11.487Z,41.75
2023-08-17T16:04:40.454Z,40.75
2023-08-17T16:07:09.403Z,40.50
2023-08-17T16:09:38.847Z,39.79
2023-08-17T16:12:08.493Z,41.74
2023-08-17T16:14:37.073Z,41.66
2023-08-17T16:17:05.846Z,40.13
2023-08-17T16:19:36.321Z,42.65
2023-08-17T16:22:05.077Z,42.25
2023-08-17T16:24:34.093Z,40.86
2023-08-17T16:27:03.627Z,43.65
2023-08-17T16:29:32.643Z,42.92
2023-08-17T16:32:09.225Z,42.14
2023-08-17T16:34:40.402Z,41.78
2023-08-17T16:37:10.998Z,43.46
2023-08-17T16:39:40.295Z,43.56
2023-08-17T16:42:09.247Z,44.76
2023-08-17T16:44:38.074Z,45.44
2023-08-17T16:47:07.172Z,43.91
2023-08-17T16:49:37.649Z,43.88
2023-08-17T16:52:08.701Z,45.00
2023-08-17T16:54:37.441Z,44.33
2023-08-17T16:57:06.347Z,45.24
2023-08-17T16:59:35.229Z,45.56
2023-08-17T17:02:04.407Z,45.36
2023-08-17T17:04:33.690Z,46.21
2023-08-17T17:07:02.901Z,45.27
2023-08-17T17:09:33.644Z,45.72
2023-08-17T17:12:02.902Z,46.24
2023-08-17T17:14:32.045Z,45.92
2023-08-17T17:17:00.861Z,46.91
2023-08-17T17:19:29.613Z,46.78
2023-08-17T17:21:58.910Z,47.45
2023-08-17T17:24:27.959Z,47.99
2023-08-17T17:26:59.428Z,48.19
2023-08-17T17:29:28.415Z,49.05
2023-08-17T17:31:57.003Z,50.08
2023-08-17T17:34:25.862Z,50.49
2023-08-17T17:36:55.858Z,51.59
2023-08-17T17:39:24.901Z,53.20
2023-08-17T17:41:55.114Z,53.52
2023-08-17T17:44:26.491Z,50.88
2023-08-17T17:46:55.478Z,51.79
2023-08-17T17:49:24.661Z,52.17
2023-08-17T17:51:53.415Z,52.57
2023-08-17T17:54:22.522Z,52.99
2023-08-17T17:56:51.787Z,53.03
2023-08-17T17:59:21.447Z,53.10
2023-08-17T18:01:51.692Z,55.43
2023-08-17T18:04:20.041Z,55.88
2023-08-17T18:06:48.942Z,56.77
2023-08-17T18:09:17.732Z,57.39
2023-08-17T18:11:46.482Z,58.55
2023-08-17T18:14:16.032Z,60.08
2023-08-17T18:16:45.066Z,60.76
2023-08-17T18:19:16.027Z,61.15
2023-08-17T18:21:44.596Z,61.75
2023-08-17T18:24:13.601Z,63.38
2023-08-17T18:26:42.560Z,65.83
2023-08-17T18:29:15.858Z,66.33
2023-08-17T18:31:45.938Z,66.31
2023-08-17T18:34:16.439Z,66.62
2023-08-17T18:36:45.606Z,67.37
2023-08-17T18:39:14.585Z,67.91
2023-08-17T18:41:43.326Z,68.39
2023-08-17T18:44:12.358Z,70.23
2023-08-17T18:46:41.933Z,71.79
2023-08-17T18:49:10.850Z,72.87
2023-08-17T18:51:41.314Z,72.82
2023-08-17T18:54:10.106Z,73.40
2023-08-17T18:56:38.915Z,72.82
2023-08-17T18:59:08.031Z,71.86
2023-08-17T19:01:37.459Z,72.49
2023-08-17T19:04:07.042Z,73.14
2023-08-17T19:06:36.190Z,74.69
2023-08-17T19:09:07.399Z,73.83
2023-08-17T19:11:36.338Z,73.56
2023-08-17T19:14:05.628Z,72.99
2023-08-17T19:16:34.880Z,73.44
2023-08-17T19:19:04.604Z,74.58
2023-08-17T19:21:33.552Z,74.19
2023-08-17T19:24:02.711Z,73.90
2023-08-17T19:26:33.002Z,73.47
2023-08-17T19:29:01.871Z,73.42
2023-08-17T19:31:30.880Z,72.47
2023-08-17T19:34:01.430Z,71.90
2023-08-17T19:36:30.275Z,71.27
2023-08-17T19:38:59.981Z,70.39
2023-08-17T19:41:28.614Z,69.94
2023-08-17T19:43:59.098Z,71.14
2023-08-17T19:46:28.265Z,71.47
2023-08-17T19:48:57.438Z,71.60
2023-08-17T19:51:26.338Z,72.62
2023-08-17T19:53:54.751Z,73.50
2023-08-17T19:56:23.476Z,73.09
2023-08-17T19:58:52.114Z,72.36
2023-08-17T20:01:23.949Z,71.37
2023-08-17T20:03:54.760Z,71.06
2023-08-17T20:06:24.082Z,70.96
2023-08-17T20:08:53.196Z,71.77
2023-08-17T20:11:21.919Z,70.76
2023-08-17T20:13:51.740Z,71.97
2023-08-17T20:16:22.359Z,71.79
2023-08-17T20:18:51.562Z,71.38
2023-08-17T20:21:20.414Z,70.79
2023-08-17T20:23:49.850Z,71.72
2023-08-17T20:26:18.951Z,70.52
2023-08-17T20:28:48.194Z,70.41
2023-08-17T20:31:17.230Z,70.39
2023-08-17T20:36:16.236Z,69.27
2023-08-17T20:38:45.984Z,69.11
2023-08-17T20:41:14.956Z,69.37
2023-08-17T20:43:43.780Z,68.83
2023-08-17T20:46:12.811Z,69.03
2023-08-17T20:48:41.898Z,67.97
2023-08-17T20:51:12.581Z,68.13
2023-08-17T20:53:42.042Z,67.68
2023-08-17T20:56:10.956Z,67.36
2023-08-17T20:58:39.962Z,67.80
2023-08-17T21:01:09.231Z,67.42
2023-08-17T21:03:38.266Z,66.95
2023-08-17T21:06:08.641Z,67.01
2023-08-17T21:08:39.233Z,66.70
2023-08-17T21:11:08.551Z,66.78
2023-08-17T21:13:38.703Z,66.87
2023-08-17T21:16:09.930Z,66.64
2023-08-17T21:18:39.071Z,67.50
2023-08-17T21:21:07.752Z,68.25
2023-08-17T21:23:38.353Z,68.56
2023-08-17T21:26:07.422Z,68.82
2023-08-17T21:28:36.439Z,69.59
2023-08-17T21:31:06.168Z,69.46
2023-08-17T21:33:36.582Z,69.81
2023-08-17T21:36:06.362Z,69.31
2023-08-17T21:38:35.338Z,69.99
2023-08-17T21:41:05.819Z,70.17
2023-08-17T21:43:34.702Z,70.63
2023-08-17T21:46:03.440Z,70.72
2023-08-17T21:48:32.863Z,71.54
2023-08-17T21:51:04.233Z,71.92
2023-08-17T21:53:33.177Z,72.33
2023-08-17T21:56:01.780Z,72.90
2023-08-17T21:58:32.328Z,73.30
2023-08-17T22:01:01.461Z,74.23
2023-08-17T22:03:30.477Z,74.64
2023-08-17T22:06:04.058Z,73.73
2023-08-17T22:08:33.539Z,73.75
2023-08-17T22:11:02.286Z,73.67
2023-08-17T22:13:32.823Z,73.93
2023-08-17T22:16:01.720Z,75.33
2023-08-17T22:18:30.493Z,75.58
2023-08-17T22:20:59.183Z,76.14
2023-08-17T22:23:27.927Z,76.01
2023-08-17T22:25:57.106Z,76.66
2023-08-17T22:28:26.564Z,76.31
2023-08-17T22:31:06.020Z,75.30
2023-08-17T22:33:35.225Z,75.92
2023-08-17T22:36:04.491Z,76.20
2023-08-17T22:38:33.390Z,76.97
2023-08-17T22:41:02.650Z,76.75
2023-08-17T22:43:31.497Z,77.82
2023-08-17T22:46:00.645Z,77.13
2023-08-17T22:48:31.017Z,76.36
2023-08-17T22:50:59.631Z,76.03
2023-08-17T22:53:28.285Z,76.33
2023-08-17T22:55:56.948Z,76.50
2023-08-17T22:58:25.936Z,75.34
2023-08-17T23:00:56.149Z,75.34
2023-08-17T23:03:24.744Z,74.99
2023-08-17T23:05:55.268Z,76.51
2023-08-17T23:08:25.390Z,76.63
2023-08-17T23:10:59.931Z,75.48
2023-08-17T23:13:28.631Z,75.00
2023-08-17T23:15:57.542Z,75.56
2023-08-17T23:18:26.047Z,76.32
2023-08-17T23:20:56.261Z,76.67
2023-08-17T23:23:25.649Z,76.38
2023-08-17T23:25:55.376Z,76.20
2023-08-17T23:28:24.714Z,76.34
2023-08-17T23:30:53.626Z,76.43
2023-08-17T23:33:22.939Z,75.56
2023-08-17T23:35:51.772Z,75.68
2023-08-17T23:38:23.071Z,76.07
2023-08-17T23:40:52.175Z,75.61
2023-08-17T23:43:21.005Z,75.46
2023-08-17T23:45:49.696Z,75.81
2023-08-17T23:48:18.870Z,76.83
2023-08-17T23:50:47.763Z,76.86
2023-08-17T23:53:16.562Z,76.40
2023-08-17T23:55:46.700Z,76.21
2023-08-17T23:58:16.000Z,75.63
